Bondville, IL (61815)

10:04 PM CDT on September 01, 2014 (GMT -0500)
Jefferson Middle School | Change Station
CLOSE
Current Station
Personal Weather Station
Location: Champaign, IL
Elevation: 728 ft
Nearby Weather Stations

Elev 728 ft 40.10 °N, 88.28 °W | Updated 6 minutes ago

Clear
Clear
73.2 °F
Feels Like 73 °F
N
5.0
Wind Variable Wind from South
Gusts 8.0 mph

Today
High -- | Low -- °F
--% Chance of Precip.
Yesterday
High -- | Low -- °F
Precip. -- in
6:21 AM 7:25 PM
Waxing Crescent, 47% visible
Pressure 29.89 in
Visibility 10.0 miles
Clouds Clear
Heat Index 73 °F
Dew Point 68 °F
Humidity 83%
Rainfall 0.00 in
Snow Depth Not available.
UV 0 out of 12
Pollen 9.90 out of 12
Air Quality Not available.
Flu Activity Not available.
METAR KCMI 020253Z 20005KT 10SM CLR 22/19 A2990 RMK AO2 SLP121 T02170194 51010

More Conditions Fewer Conditions

Pressure 29.89 in
Visibility 10.0 miles
Clouds Clear
Heat Index 73 °F
Dew Point 68 °F
Humidity 83%
Rainfall 0.00 in
Snow Depth Not available.
UV 0 out of 12
Pollen 9.90 out of 12
Air Quality Not available.
Flu Activity Not available.
METAR KCMI 020253Z 20005KT 10SM CLR 22/19 A2990 RMK AO2 SLP121 T02170194 51010

More Conditions Fewer Conditions

10-Day Weather Forecast

Almanac

Astronomy

Sep. 01, 2014 Rise Set
Actual Time 6:21 AM CDT 7:25 PM CDT
Civil Twilight 5:53 AM CDT 7:52 PM CDT
Nautical Twilight 5:20 AM CDT 8:25 PM CDT
Astronomical Twilight 4:45 AM CDT 9:00 PM CDT
Moon 1:06 PM CDT (9/1) 11:25 PM CDT (9/1)
Length of Visible Light 13h 59m
Length of Day
13h 03m
Tomorrow will be 2m 33s shorter.
Waxing Crescent, 47% of the Moon is Illuminated
Today
Waxing Crescent
Sep 2
First Quarter
Sep 8
Full
Sep 15
Last Quarter
Sep 24
New

Today's Extremes

State Highs State Lows

Community

WunderPhotos

Upload Photos

1,749,537 photos uploaded!

WunderBlogs® & News

Nearby

Snow Depth

Station Depth Elevation
No new snow has been reported.

Earthquake Activity

City Distance Mag. Time & Date
No recent earthquake activity has been reported nearby.
Minimum magnitude displayed is 2.5.

Coastal Water Temperatures

Place Temperature
No Stations Reporting

Nearby Weather Stations